Latest Weather Observations for Wilsons Promontory

IDV60801

Issued at 5:05 am EST Thursday 24 April 2014 (issued every 30 minutes, with the page automatically refreshed every 10 minutes)

About weather observations | Map of weather stations | Latest weather observations for VIC | Other Formats
Station Details ID: 085096 Name: WILSONS PROMONTORY LIGHTHOUSE Lat: -39.13 Lon: 146.42 Height: 95.0 m
Data from the previous 72 hours. | See also: Recent months at Wilsons Promontory
Date/Time
EST
Temp
°C
App
Temp
°C
Dew
Point
Rel
Hum
%
Delta-T
°C
Wind Press
QNH
hPa
Press
MSL
hPa
Rain
since 9 am
mm
Dir
 
Spd
km/h
Gust
km/h
Spd
kts
Gust
kts
24/05:00am 14.8 9.7 6.1 56 4.2 WNW 22 54 12 29 1006.8 - 0.0
24/04:30am 14.8 11.4 5.9 55 4.3 WNW 13 28 7 15 1006.9 - 0.0
24/04:00am 14.6 11.1 5.4 54 4.4 N 13 46 7 25 1007.0 - 0.0
24/03:30am 14.8 9.5 5.1 52 4.6 NNW 22 50 12 27 1007.3 - 0.0
24/03:00am 15.1 9.8 4.8 50 4.9 NNW 22 43 12 23 1007.7 1007.6 0.0
24/02:30am 15.0 10.3 5.2 52 4.6 NNW 19 48 10 26 1008.2 - 0.0
24/02:00am 14.9 9.3 5.4 53 4.5 NW 24 41 13 22 1008.6 - 0.0
24/01:30am 14.5 10.1 6.6 59 3.8 N 19 35 10 19 1009.1 - 0.0
24/01:00am 14.3 10.2 7.8 65 3.2 N 19 37 10 20 1009.8 - 0.0
24/12:30am 14.3 10.7 6.9 61 3.6 N 15 30 8 16 1010.1 - 0.0
24/12:00am 14.1 11.4 7.2 63 3.4 N 11 28 6 15 1010.5 1010.4 0.0
 
Date/Time
EST
Temp
°C
App
Temp
°C
Dew
Point
Rel
Hum
%
Delta-T
°C
Wind Press
QNH
hPa
Press
MSL
hPa
Rain
since 9 am
mm
Dir
 
Spd
km/h
Gust
km/h
Spd
kts
Gust
kts
23/11:30pm 14.0 10.5 7.3 64 3.3 N 15 30 8 16 1010.7 - 0.0
23/11:00pm 14.1 10.6 7.4 64 3.3 N 15 30 8 16 1011.2 - 0.0
23/10:30pm 14.1 10.6 7.2 63 3.4 N 15 20 8 11 1011.7 - 0.0
23/10:00pm 13.8 11.0 8.4 70 2.7 NNW 13 26 7 14 1011.9 - 0.0
23/09:30pm 13.6 11.0 9.5 76 2.1 N 13 20 7 11 1012.1 - 0.0
23/09:00pm 13.7 11.9 9.6 76 2.1 N 9 15 5 8 1012.3 1012.2 0.0
23/08:30pm 13.7 12.0 9.7 77 2.1 NNW 9 13 5 7 1012.4 - 0.0
23/08:00pm 13.9 12.5 9.7 76 2.2 N 7 13 4 7 1012.5 - 0.0
23/07:30pm 14.0 12.6 9.6 75 2.3 N 7 13 4 7 1012.8 - 0.0
23/07:00pm 14.1 11.9 9.5 74 2.4 NW 11 20 6 11 1012.8 - 0.0
23/06:30pm 14.2 12.8 9.6 74 2.4 NW 7 19 4 10 1012.7 - 0.0
23/06:00pm 14.3 11.0 9.7 74 2.4 WNW 17 26 9 14 1012.6 1012.5 0.0
23/05:30pm 14.7 11.9 9.9 73 2.5 WNW 15 26 8 14 1012.6 - 0.0
23/05:00pm 15.1 11.5 9.9 71 2.7 W 19 28 10 15 1012.6 - 0.0
23/04:30pm 15.4 13.2 9.3 67 3.2 W 11 20 6 11 1012.6 - 0.0
23/04:00pm 15.6 12.6 9.3 66 3.3 W 15 20 8 11 1012.6 - 0.0
23/03:30pm 15.7 13.2 9.6 67 3.2 W 13 22 7 12 1012.8 - 0.0
23/03:00pm 15.7 12.0 9.4 66 3.3 W 19 28 10 15 1012.9 1012.8 0.0
23/02:30pm 16.0 12.8 9.9 67 3.2 W 17 26 9 14 1013.0 - 0.0
23/02:00pm 15.7 12.1 9.8 68 3.1 W 19 28 10 15 1013.2 - 0.0
23/01:30pm 16.1 12.5 9.8 66 3.3 W 19 28 10 15 1013.5 - 0.0
23/01:00pm 16.3 12.7 9.7 65 3.5 W 19 30 10 16 1013.7 - 0.0
23/12:30pm 16.2 14.8 9.4 64 3.5 ESE 7 11 4 6 1014.1 - 0.0
23/12:00pm 15.8 14.3 9.0 64 3.5 ESE 7 9 4 5 1014.6 1014.5 0.0
23/11:30am 16.3 15.1 9.7 65 3.5 SE 6 9 3 5 1015.1 - 0.0
23/11:00am 16.7 15.5 9.6 63 3.7 SE 6 9 3 5 1015.4 - 0.0
23/10:30am 15.7 14.3 8.7 63 3.6 E 6 7 3 4 1015.7 - 0.0
23/10:00am 16.0 14.5 9.0 63 3.6 ENE 7 9 4 5 1015.8 - 0.0
23/09:30am 16.3 14.8 9.3 63 3.6 NE 7 11 4 6 1015.8 - 0.0
23/09:00am 16.9 16.2 10.1 64 3.6 ENE 4 9 2 5 1016.0 1016.0 0.8
23/08:30am 16.1 14.8 9.1 63 3.6 NNE 6 9 3 5 1016.0 - 0.8
23/08:00am 15.8 14.6 9.5 66 3.3 N 6 9 3 5 1016.0 - 0.8
23/07:30am 14.3 12.3 8.7 69 2.8 N 9 13 5 7 1015.8 - 0.8
23/07:00am 13.9 11.9 8.7 71 2.6 NNW 9 11 5 6 1015.9 - 0.8
23/06:30am 13.7 11.3 8.7 72 2.5 N 11 13 6 7 1015.7 - 0.8
23/06:00am 13.7 11.4 9.0 73 2.4 N 11 13 6 7 1015.6 1015.5 0.8
23/05:30am 13.6 12.0 8.9 73 2.4 N 7 9 4 5 1015.6 - 0.8
23/05:00am 13.5 11.9 8.6 72 2.5 N 7 9 4 5 1015.6 - 0.8
23/04:30am 13.9 12.3 8.9 72 2.5 NW 7 9 4 5 1015.5 - 0.8
23/04:00am 13.9 11.2 9.1 73 2.4 WNW 13 15 7 8 1015.5 - 0.8
23/03:30am 14.0 11.6 8.8 71 2.6 WNW 11 15 6 8 1015.5 - 0.8
23/03:00am 13.7 10.9 8.7 72 2.5 W 13 17 7 9 1015.7 1015.6 0.8
23/02:30am 13.6 10.5 8.7 72 2.5 W 15 17 8 9 1015.8 - 0.8
23/02:00am 13.6 10.4 8.4 71 2.6 W 15 19 8 10 1015.9 - 0.8
23/01:30am 13.7 10.1 8.5 71 2.6 W 17 22 9 12 1016.1 - 0.8
23/01:00am 13.6 10.3 8.2 70 2.7 W 15 17 8 9 1016.5 - 0.8
23/12:30am 13.7 10.0 8.1 69 2.8 W 17 20 9 11 1016.6 - 0.8
23/12:00am 13.6 10.3 8.0 69 2.8 W 15 19 8 10 1016.6 1016.5 0.8
 
Date/Time
EST
Temp
°C
App
Temp
°C
Dew
Point
Rel
Hum
%
Delta-T
°C
Wind Press
QNH
hPa
Press
MSL
hPa
Rain
since 9 am
mm
Dir
 
Spd
km/h
Gust
km/h
Spd
kts
Gust
kts
22/11:30pm 13.7 9.7 8.1 69 2.8 WNW 19 24 10 13 1016.8 - 0.8
22/11:00pm 13.8 9.8 8.2 69 2.8 W 19 24 10 13 1016.9 - 0.8
22/10:30pm 13.9 10.3 8.3 69 2.8 W 17 20 9 11 1017.0 - 0.8
22/10:00pm 14.1 11.0 8.7 70 2.7 W 15 22 8 12 1017.0 - 0.8
22/09:30pm 14.3 11.2 8.9 70 2.8 WNW 15 28 8 15 1016.9 - 0.8
22/09:00pm 14.3 10.5 9.1 71 2.7 W 19 26 10 14 1016.4 1016.3 0.8
22/08:30pm 14.3 10.5 8.9 70 2.8 W 19 28 10 15 1016.1 - 0.8
22/08:00pm 14.6 10.7 8.5 67 3.1 W 19 32 10 17 1016.0 - 0.8
22/07:30pm 14.8 7.8 8.5 66 3.2 WSW 35 44 19 24 1015.6 - 0.8
22/07:00pm 15.0 6.8 8.3 64 3.4 SW 41 46 22 25 1015.3 - 0.8
22/06:30pm 15.0 7.8 9.1 68 3.0 WSW 37 48 20 26 1014.9 - 0.8
22/06:00pm 14.9 6.1 9.7 71 2.7 SW 46 54 25 29 1014.1 1014.0 0.8
22/05:30pm 15.0 6.7 10.0 72 2.6 SW 44 52 24 28 1013.7 - 0.8
22/05:00pm 15.1 7.0 10.7 75 2.3 SW 44 50 24 27 1013.4 - 0.8
22/04:51pm 15.2 7.2 11.0 76 2.2 SW 44 48 24 26 1013.4 - 0.8
22/04:30pm 15.5 10.0 10.5 72 2.7 W 30 41 16 22 1013.4 - 0.8
22/04:00pm 15.7 10.8 11.3 75 2.4 W 28 39 15 21 1013.3 - 0.8
22/03:30pm 15.5 10.7 12.8 84 1.5 W 30 43 16 23 1013.1 - 0.8
22/03:00pm 15.3 11.8 13.3 88 1.1 W 24 33 13 18 1013.0 1012.9 0.8
22/02:30pm 15.0 9.7 13.0 88 1.1 WSW 33 52 18 28 1012.4 - 0.8
22/02:06pm 15.4 9.2 12.7 84 1.5 W 37 56 20 30 1012.6 - 0.8
22/02:00pm 15.6 8.2 12.4 81 1.8 W 43 56 23 30 1012.3 - 0.8
22/01:30pm 16.4 10.8 12.2 76 2.3 W 33 59 18 32 1012.4 - 0.8
22/01:00pm 16.5 10.9 12.1 75 2.4 WNW 33 54 18 29 1012.4 - 0.8
22/12:30pm 16.7 12.0 12.0 74 2.6 WNW 28 57 15 31 1012.3 - 0.8
22/12:00pm 16.7 15.2 12.0 74 2.6 N 11 30 6 16 1012.9 1012.8 0.8
22/11:30am 16.0 12.8 11.2 73 2.6 NW 19 46 10 25 1013.0 - 0.8
22/11:00am 16.3 13.0 11.0 71 2.9 NNW 19 43 10 23 1012.8 - 0.8
22/10:30am 16.2 12.5 11.4 73 2.6 NNW 22 44 12 24 1012.3 - 0.8
22/10:00am 15.9 12.7 11.3 74 2.5 NNW 19 46 10 25 1012.6 - 0.8
22/09:30am 14.9 9.2 11.3 79 1.9 NNW 32 63 17 34 1012.4 - 0.6
22/09:00am 14.6 8.3 11.0 79 1.9 NNW 35 65 19 35 1012.3 1012.2 13.0
22/08:32am 14.3 9.3 10.9 80 1.8 NNW 28 54 15 29 1012.7 - 12.6
22/08:30am 14.4 9.8 11.0 80 1.8 NNW 26 54 14 29 1012.7 - 12.6
22/08:02am 14.2 9.4 11.5 84 1.4 NNW 28 54 15 29 1012.7 - 11.8
22/08:00am 14.1 9.7 11.6 85 1.3 NNW 26 54 14 29 1012.8 - 11.8
22/07:33am 14.1 7.9 11.4 84 1.4 WNW 35 61 19 33 1012.7 - 10.4
22/07:30am 14.1 11.3 11.4 84 1.4 NNW 17 70 9 38 1013.0 - 10.2
22/07:18am 14.2 7.6 11.2 82 1.6 W 37 82 20 44 1012.6 - 9.6
22/07:14am 14.3 8.0 11.1 81 1.7 W 35 61 19 33 1012.9 - 9.4
22/07:00am 14.5 12.8 11.1 80 1.8 NW 11 28 6 15 1012.6 - 7.8
22/06:30am 14.5 10.9 10.7 78 2.0 NNW 20 37 11 20 1012.4 - 6.8
22/06:00am 14.9 11.1 9.9 72 2.6 WNW 20 50 11 27 1013.0 1012.9 5.6
22/05:40am 15.9 10.7 10.2 69 3.0 W 28 48 15 26 1012.0 - 4.8
22/05:30am 15.8 10.9 9.9 68 3.1 W 26 41 14 22 1012.0 - 4.6
22/05:22am 16.2 10.9 9.8 66 3.4 WNW 28 46 15 25 1012.0 - 4.6
22/05:00am 16.9 14.8 9.6 62 3.8 WNW 11 33 6 18 1011.5 - 4.4
22/04:30am 17.0 15.9 9.9 63 3.8 NE 6 61 3 33 1011.4 - 4.4
22/04:22am 17.0 10.3 9.7 62 3.8 NW 35 61 19 33 1011.2 - 4.4
22/04:00am 16.7 7.3 10.1 65 3.5 W 50 76 27 41 1011.0 - 4.4
22/03:30am 15.5 5.5 12.1 80 1.9 W 56 82 30 44 1011.5 - 4.4
22/03:18am 15.2 2.5 11.4 78 2.0 W 69 95 37 51 1011.4 - 3.8
22/03:00am 16.9 8.3 10.3 65 3.5 W 46 74 25 40 1011.8 1011.7 0.6
22/02:43am 17.3 11.8 9.2 59 4.2 W 28 70 15 38 1011.6 - 0.6
22/02:30am 17.5 11.7 8.1 54 4.8 W 28 43 15 23 1011.6 - 0.6
22/02:00am 17.6 12.5 7.6 52 5.1 NNW 24 52 13 28 1010.7 - 0.6
22/01:30am 17.2 14.5 8.9 58 4.3 WNW 13 43 7 23 1011.5 - 0.6
22/01:00am 18.0 12.3 8.3 53 5.0 W 28 52 15 28 1011.5 - 0.6
22/12:30am 20.1 12.6 6.4 41 6.9 NNW 35 76 19 41 1011.1 - 0.6
22/12:00am 20.0 13.0 6.7 42 6.7 NNW 33 69 18 37 1011.3 1011.2 0.6
 
Date/Time
EST
Temp
°C
App
Temp
°C
Dew
Point
Rel
Hum
%
Delta-T
°C
Wind Press
QNH
hPa
Press
MSL
hPa
Rain
since 9 am
mm
Dir
 
Spd
km/h
Gust
km/h
Spd
kts
Gust
kts
21/11:30pm 20.3 12.5 6.6 41 6.9 N 37 61 20 33 1011.3 - 0.6
21/11:00pm 20.4 11.8 6.4 40 7.1 NNW 41 65 22 35 1011.2 - 0.6
21/10:30pm 20.3 12.0 6.3 40 7.0 NNW 39 74 21 40 1011.3 - 0.6
21/10:00pm 20.4 12.2 6.4 40 7.1 NNW 39 70 21 38 1011.6 - 0.6
21/09:30pm 20.1 12.7 6.8 42 6.8 N 35 63 19 34 1012.0 - 0.6
21/09:00pm 19.9 13.2 7.3 44 6.5 NNW 32 56 17 30 1012.5 1012.4 0.6
21/08:43pm 19.0 12.9 8.4 50 5.5 N 30 54 16 29 1012.7 - 0.6
21/08:30pm 17.1 12.6 10.0 63 3.8 N 24 33 13 18 1012.7 - 0.6
21/08:00pm 17.5 11.1 9.4 59 4.3 N 33 44 18 24 1012.6 - 0.6
21/07:30pm 17.1 11.0 9.8 62 3.9 N 32 44 17 24 1012.8 - 0.6
21/07:00pm 16.7 11.8 10.1 65 3.5 N 26 39 14 21 1012.7 - 0.6
21/06:30pm 16.3 12.7 10.4 68 3.1 NNE 20 30 11 16 1012.9 - 0.6
21/06:00pm 16.1 11.9 11.1 72 2.7 NNE 24 35 13 19 1012.8 1012.7 0.4
21/05:30pm 15.8 12.4 11.2 74 2.5 NNE 20 30 11 16 1013.1 - 0.4
21/05:00pm 15.6 12.7 11.0 74 2.5 NNE 17 24 9 13 1013.3 - 0.4
21/04:30pm 16.3 13.7 10.8 70 2.9 NNE 15 20 8 11 1013.9 - 0.2
21/04:00pm 16.4 14.2 10.9 70 3.0 NNE 13 17 7 9 1014.2 - 0.2
21/03:30pm 16.9 15.2 9.8 63 3.7 N 9 11 5 6 1014.9 - 0.2
21/03:00pm 17.1 16.3 9.8 62 3.8 NW 4 9 2 5 1015.7 1015.6 0.2
21/02:30pm 17.8 14.2 8.4 54 4.8 N 17 26 9 14 1015.1 - 0.0
21/02:00pm 17.8 15.0 8.4 54 4.8 N 13 20 7 11 1015.1 - 0.0
21/01:30pm 17.5 12.7 7.3 51 5.1 NNW 22 33 12 18 1015.3 - 0.0
21/01:00pm 17.7 13.9 7.4 51 5.2 NNW 17 28 9 15 1015.4 - 0.0
21/12:30pm 17.2 13.3 7.3 52 5.0 N 17 26 9 14 1016.0 - 0.0
21/12:00pm 17.5 12.6 7.0 50 5.3 NNW 22 37 12 20 1016.5 1016.4 0.0
21/11:30am 16.9 11.0 5.8 48 5.4 NNW 26 43 14 23 1016.7 - 0.0
21/11:14am 16.9 10.6 5.5 47 5.5 NW 28 54 15 29 1016.6 - 0.0
21/11:00am 17.0 11.5 5.9 48 5.4 NNW 24 44 13 24 1016.9 - 0.0
21/10:31am 16.6 10.3 5.6 48 5.3 NW 28 46 15 25 1017.0 - 0.0
21/10:30am 16.6 10.7 5.6 48 5.3 NW 26 46 14 25 1017.1 - 0.0
21/10:01am 16.2 9.8 5.2 48 5.3 NW 28 54 15 29 1017.1 - 0.0
21/10:00am 16.2 10.2 5.2 48 5.3 NNW 26 41 14 22 1017.3 - 0.0
21/09:33am 16.3 9.8 4.7 46 5.5 NW 28 54 15 29 1017.2 - 0.0
21/09:30am 16.2 10.6 5.2 48 5.3 NW 24 43 13 23 1017.3 - 0.0
21/09:00am 15.8 8.6 4.8 48 5.2 WNW 32 63 17 34 1017.0 1016.9 1.4
21/08:30am 15.5 8.6 4.8 49 5.1 NW 30 61 16 33 1017.3 - 1.4
21/08:22am 15.3 8.8 4.9 50 4.9 NW 28 50 15 27 1017.2 - 1.4
21/08:00am 14.8 9.1 5.1 52 4.6 NW 24 50 13 27 1017.3 - 1.4
21/07:45am 14.7 8.3 5.0 52 4.6 NW 28 54 15 29 1017.4 - 1.4
21/07:30am 14.5 8.8 5.0 53 4.5 NW 24 50 13 27 1017.2 - 1.4
21/07:07am 14.7 7.9 5.0 52 4.6 NW 30 65 16 35 1017.0 - 1.4
21/07:00am 14.5 8.8 5.0 53 4.5 NW 24 57 13 31 1016.9 - 1.4
21/06:30am 14.4 9.7 5.2 54 4.3 NW 19 41 10 22 1017.1 - 1.4
21/06:00am 14.3 8.7 5.4 55 4.2 NW 24 57 13 31 1017.0 1016.9 1.4
21/05:47am 14.4 8.1 5.5 55 4.2 NW 28 50 15 27 1016.7 - 1.4
21/05:30am 14.4 9.2 5.7 56 4.1 NW 22 43 12 23 1016.7 - 1.4

Other Formats:

Comma delimited format used in spreadsheet applications
http://www.bom.gov.au/fwo/IDV60801/IDV60801.94893.axf

JavaScript Object Notation format (JSON) in row-major order
http://www.bom.gov.au/fwo/IDV60801/IDV60801.94893.json